createdAt,value
2022-12-19T00:00:18.808Z,80.5
2022-12-19T00:01:21.695Z,80.5
2022-12-19T00:02:25.589Z,80.4
2022-12-19T00:03:29.051Z,80.4
2022-12-19T00:04:32.459Z,80.2
2022-12-19T00:05:35.595Z,80.3
2022-12-19T00:06:45.314Z,80.2
2022-12-19T00:07:48.469Z,80
2022-12-19T00:08:51.759Z,79.8
2022-12-19T00:09:54.831Z,79.8
2022-12-19T00:10:57.639Z,79.9
2022-12-19T00:12:00.852Z,79.9
2022-12-19T00:13:10.137Z,79.6
2022-12-19T00:14:14.011Z,79.8
2022-12-19T00:15:16.596Z,79.8
2022-12-19T00:16:20.752Z,79.7
2022-12-19T00:17:24.548Z,79.7
2022-12-19T00:18:26.864Z,79.7
2022-12-19T00:19:30.275Z,80.1
2022-12-19T00:20:33.700Z,79.9
2022-12-19T00:21:36.882Z,79.9
2022-12-19T00:22:39.970Z,79.8
2022-12-19T00:23:43.099Z,79.6
2022-12-19T00:24:46.537Z,79.5
2022-12-19T00:25:52.414Z,79.4
2022-12-19T00:27:02.567Z,79.4
2022-12-19T00:28:05.722Z,79.3
2022-12-19T00:29:16.559Z,79.3
2022-12-19T00:30:28.184Z,79.3
2022-12-19T00:31:33.322Z,79.4
2022-12-19T00:32:35.843Z,79.4
2022-12-19T00:33:44.592Z,79.5
2022-12-19T00:34:47.306Z,79.5
2022-12-19T00:35:50.735Z,79.6
2022-12-19T00:36:52.971Z,79.4
2022-12-19T00:37:55.831Z,79.4
2022-12-19T00:38:59.170Z,79.4
2022-12-19T00:40:02.524Z,79.7
2022-12-19T00:41:05.690Z,79.6
2022-12-19T00:42:08.830Z,79.5
2022-12-19T00:43:11.797Z,79.4
2022-12-19T00:44:14.733Z,79.3
2022-12-19T00:45:18.478Z,79.4
2022-12-19T00:46:22.710Z,79.4
2022-12-19T00:47:26.055Z,79.1
2022-12-19T00:48:29.390Z,79.1
2022-12-19T00:49:35.479Z,79.3
2022-12-19T00:50:40.984Z,79.1
2022-12-19T00:51:44.137Z,79.2
2022-12-19T00:52:46.843Z,79.3
2022-12-19T00:53:51.499Z,79.3
2022-12-19T00:54:57.073Z,79.2
2022-12-19T00:56:00.032Z,79.4
2022-12-19T00:57:03.019Z,79.4
2022-12-19T00:58:06.517Z,79.4
2022-12-19T00:59:08.380Z,79.3
2022-12-19T01:00:10.532Z,79.3
2022-12-19T01:01:13.235Z,79.2
2022-12-19T01:02:18.297Z,79.1
2022-12-19T01:03:22.468Z,79.1
2022-12-19T01:04:41.459Z,79.2
2022-12-19T01:05:45.397Z,79.1
2022-12-19T01:06:49.683Z,79.2
2022-12-19T01:07:53.863Z,79.2
2022-12-19T01:08:56.565Z,79
2022-12-19T01:09:59.337Z,79
2022-12-19T01:11:01.831Z,79
2022-12-19T01:12:04.606Z,78.9
2022-12-19T01:13:07.933Z,78.8
2022-12-19T01:14:10.706Z,78.8
2022-12-19T01:15:13.508Z,78.8
2022-12-19T01:16:18.544Z,79
2022-12-19T01:17:24.791Z,78.8
2022-12-19T01:18:28.442Z,78.9
2022-12-19T01:19:30.865Z,78.9
2022-12-19T01:20:33.920Z,78.9
2022-12-19T01:21:37.250Z,78.9
2022-12-19T01:22:41.217Z,78.8
2022-12-19T01:23:44.573Z,78.7
2022-12-19T01:24:47.422Z,78.7
2022-12-19T01:25:49.840Z,78.7
2022-12-19T01:26:52.814Z,78.8
2022-12-19T01:27:55.246Z,78.7
2022-12-19T01:28:58.402Z,78.7
2022-12-19T01:30:01.441Z,78.8
2022-12-19T01:31:04.234Z,78.8
2022-12-19T01:32:07.865Z,78.7
2022-12-19T01:33:11.799Z,78.5
2022-12-19T01:34:15.163Z,78.7
2022-12-19T01:35:23.165Z,78.7
2022-12-19T01:36:25.657Z,78.7
2022-12-19T01:37:28.435Z,78.9
2022-12-19T01:38:31.687Z,78.9
2022-12-19T01:39:37.528Z,78.8
2022-12-19T01:40:47.850Z,78.8
2022-12-19T01:41:49.874Z,78.8
2022-12-19T01:42:52.723Z,78.8
2022-12-19T01:43:55.564Z,78.9
2022-12-19T01:45:00.846Z,78.7
2022-12-19T01:46:03.563Z,78.7
2022-12-19T01:47:06.050Z,78.8
2022-12-19T01:48:08.971Z,78.8
2022-12-19T01:49:17.610Z,78.8
2022-12-19T01:50:28.562Z,79
2022-12-19T01:51:31.621Z,78.8
2022-12-19T01:52:34.736Z,78.8
2022-12-19T01:53:50.733Z,79
2022-12-19T01:54:53.504Z,79.1
2022-12-19T01:55:56.549Z,79
2022-12-19T01:56:59.132Z,78.9
2022-12-19T01:58:02.212Z,78.9
2022-12-19T01:59:08.254Z,78.8
2022-12-19T02:00:10.683Z,78.8
2022-12-19T02:01:13.157Z,78.8
2022-12-19T02:02:17.837Z,78.9
2022-12-19T02:03:21.627Z,78.8
2022-12-19T02:04:27.213Z,78.8
2022-12-19T02:05:36.067Z,78.9
2022-12-19T02:06:39.070Z,78.9
2022-12-19T02:07:41.489Z,78.9
2022-12-19T02:08:44.300Z,78.9
2022-12-19T02:09:47.047Z,78.9
2022-12-19T02:10:59.663Z,79.1
2022-12-19T02:12:02.574Z,79.2
2022-12-19T02:13:05.734Z,79.3
2022-12-19T02:14:08.526Z,79.4
2022-12-19T02:15:12.054Z,79.4
2022-12-19T02:16:15.447Z,79.3
2022-12-19T02:17:23.320Z,79.2
2022-12-19T02:18:26.800Z,79.3
2022-12-19T02:19:30.868Z,79.2
2022-12-19T02:20:34.198Z,79.1
2022-12-19T02:21:38.156Z,79.2
2022-12-19T02:22:41.877Z,79.2
2022-12-19T02:23:45.310Z,79.2
2022-12-19T02:24:48.660Z,79.1
2022-12-19T02:25:57.587Z,79.1
2022-12-19T02:27:00.318Z,79.3
2022-12-19T02:28:03.051Z,79.2
2022-12-19T02:29:05.833Z,79.2
2022-12-19T02:30:08.993Z,79.3
2022-12-19T02:31:18.676Z,79.3
2022-12-19T02:32:21.211Z,79.4
2022-12-19T02:33:23.712Z,79.5
2022-12-19T02:34:26.674Z,79.6
2022-12-19T02:35:30.840Z,79.5
2022-12-19T02:36:45.529Z,79.4
2022-12-19T02:37:58.989Z,79.4
2022-12-19T02:39:11.576Z,79.5
2022-12-19T02:40:15.379Z,79.5
2022-12-19T02:41:17.895Z,79.4
2022-12-19T02:42:25.428Z,79.4
2022-12-19T02:43:34.491Z,79.6
2022-12-19T02:44:36.948Z,79.5
2022-12-19T02:45:41.219Z,79.5
2022-12-19T02:46:45.910Z,79.5
2022-12-19T02:47:48.766Z,79.4
2022-12-19T02:48:51.746Z,79.4
2022-12-19T02:49:55.275Z,79.4
2022-12-19T02:50:59.072Z,79.5
2022-12-19T02:52:02.426Z,79.4
2022-12-19T02:53:07.703Z,79.4
2022-12-19T02:54:11.025Z,79.4
2022-12-19T02:55:14.141Z,79.3
2022-12-19T02:56:16.615Z,79.3
2022-12-19T02:57:20.309Z,79.3
2022-12-19T02:58:22.753Z,79.3
2022-12-19T02:59:25.908Z,79.2
2022-12-19T03:00:28.991Z,79.1
2022-12-19T03:01:32.118Z,79.1
2022-12-19T03:02:35.677Z,79.1
2022-12-19T03:03:40.070Z,79.2
2022-12-19T03:04:43.935Z,79.3
2022-12-19T03:05:47.187Z,79.2
2022-12-19T03:06:51.589Z,79.2
2022-12-19T03:07:54.826Z,79.2
2022-12-19T03:08:58.708Z,79.2
2022-12-19T03:10:01.808Z,79.4
2022-12-19T03:11:04.631Z,79.4
2022-12-19T03:12:08.628Z,79.4
2022-12-19T03:13:19.872Z,79.4
2022-12-19T03:14:23.216Z,79.4
2022-12-19T03:15:25.374Z,79.3
2022-12-19T03:16:29.068Z,79.4
2022-12-19T03:17:32.645Z,79.4
2022-12-19T03:18:35.703Z,79.3
2022-12-19T03:19:38.201Z,79.4
2022-12-19T03:20:41.195Z,79.4
2022-12-19T03:21:44.486Z,79.4
2022-12-19T03:22:48.306Z,79.6
2022-12-19T03:23:51.311Z,79.7
2022-12-19T03:24:54.681Z,79.5
2022-12-19T03:25:57.182Z,79.4
2022-12-19T03:27:00.222Z,79.3
2022-12-19T03:28:03.320Z,79.2
2022-12-19T03:29:05.770Z,79.3
2022-12-19T03:30:08.770Z,79.3
2022-12-19T03:31:12.409Z,79.3
2022-12-19T03:32:15.606Z,79.3
2022-12-19T03:33:17.770Z,79.1
2022-12-19T03:34:20.993Z,79.2
2022-12-19T03:35:25.378Z,79.2
2022-12-19T03:36:28.517Z,79.3
2022-12-19T03:37:31.820Z,79.4
2022-12-19T03:38:35.992Z,79.4
2022-12-19T03:39:39.195Z,79.4
2022-12-19T03:40:42.597Z,79.3
2022-12-19T03:41:45.581Z,79.5
2022-12-19T03:42:48.522Z,79.6
2022-12-19T03:43:53.020Z,79.5
2022-12-19T03:44:56.492Z,79.3
2022-12-19T03:46:00.833Z,79.3
2022-12-19T03:47:03.890Z,79.3
2022-12-19T03:48:06.879Z,79.3
2022-12-19T03:49:11.641Z,79.4
2022-12-19T03:50:14.802Z,79.4
2022-12-19T03:51:18.069Z,79.4
2022-12-19T03:52:20.867Z,79.5
2022-12-19T03:53:24.144Z,79.5
2022-12-19T03:54:28.209Z,79.5
2022-12-19T03:55:32.795Z,79.4
2022-12-19T03:56:36.206Z,79.5
2022-12-19T03:57:39.274Z,79.7
2022-12-19T03:58:42.123Z,79.4
2022-12-19T03:59:45.579Z,79.3
2022-12-19T04:00:49.318Z,79.3
2022-12-19T04:01:52.905Z,79.5
2022-12-19T04:02:56.240Z,79.8
2022-12-19T04:03:59.305Z,79.8
2022-12-19T04:05:01.738Z,79.8
2022-12-19T04:06:04.867Z,79.8
2022-12-19T04:07:07.087Z,79.6
2022-12-19T04:08:11.115Z,79.7
2022-12-19T04:09:23.232Z,79.6
2022-12-19T04:10:28.923Z,79.5
2022-12-19T04:11:31.677Z,79.6
2022-12-19T04:12:36.001Z,79.6
2022-12-19T04:13:38.439Z,79.7
2022-12-19T04:14:41.867Z,79.8
2022-12-19T04:15:45.113Z,79.7
2022-12-19T04:16:48.146Z,79.9
2022-12-19T04:17:50.871Z,79.9
2022-12-19T04:18:53.311Z,79.9
2022-12-19T04:19:56.318Z,79.8
2022-12-19T04:20:59.171Z,79.7
2022-12-19T04:22:01.635Z,79.6
2022-12-19T04:23:04.852Z,79.6
2022-12-19T04:24:07.662Z,79.5
2022-12-19T04:25:10.963Z,79.7
2022-12-19T04:26:15.032Z,79.8
2022-12-19T04:27:17.839Z,79.8
2022-12-19T04:28:22.069Z,79.9
2022-12-19T04:29:25.167Z,79.8
2022-12-19T04:30:27.942Z,79.7
2022-12-19T04:31:38.965Z,79.9
2022-12-19T04:32:42.096Z,79.8
2022-12-19T04:33:45.550Z,80
2022-12-19T04:34:47.972Z,80
2022-12-19T04:35:50.703Z,79.9
2022-12-19T04:36:53.499Z,79.8
2022-12-19T04:37:56.301Z,80
2022-12-19T04:38:59.752Z,80.2
2022-12-19T04:40:03.262Z,80.4
2022-12-19T04:41:06.031Z,80.3
2022-12-19T04:42:09.800Z,80.1
2022-12-19T04:43:12.956Z,80.3
2022-12-19T04:44:16.618Z,80.2
2022-12-19T04:45:19.505Z,80
2022-12-19T04:46:23.073Z,80.2
2022-12-19T04:47:25.722Z,80.3
2022-12-19T04:48:29.060Z,80.3
2022-12-19T04:49:32.178Z,80.1
2022-12-19T04:50:35.906Z,80.3
2022-12-19T04:51:39.436Z,80.4
2022-12-19T04:52:41.579Z,80.4
2022-12-19T04:53:44.857Z,80.3
2022-12-19T04:54:47.651Z,80.4
2022-12-19T04:55:51.074Z,80.3
2022-12-19T04:56:54.966Z,80.3
2022-12-19T04:57:58.786Z,80.3
2022-12-19T04:59:02.408Z,80.3
2022-12-19T05:00:06.035Z,80.6
2022-12-19T05:01:10.248Z,80.5
2022-12-19T05:02:14.270Z,80.7
2022-12-19T05:03:17.671Z,80.5
2022-12-19T05:04:21.215Z,80.4
2022-12-19T05:05:23.925Z,80.3
2022-12-19T05:06:26.915Z,80.3
2022-12-19T05:07:30.323Z,80.2
2022-12-19T05:08:33.601Z,80.5
2022-12-19T05:09:37.019Z,80.3
2022-12-19T05:10:40.795Z,80.2
2022-12-19T05:11:46.497Z,80.2
2022-12-19T05:12:49.534Z,80.3
2022-12-19T05:13:53.371Z,80.3
2022-12-19T05:14:55.795Z,80.2
2022-12-19T05:15:59.329Z,80.3
2022-12-19T05:17:03.173Z,80.2
2022-12-19T05:18:06.601Z,80.2
2022-12-19T05:19:09.866Z,80.1
2022-12-19T05:20:12.576Z,80.2
2022-12-19T05:21:15.115Z,80.2
2022-12-19T05:22:18.634Z,80.1
2022-12-19T05:23:22.709Z,80.1
2022-12-19T05:24:25.428Z,80
2022-12-19T05:25:27.851Z,79.8
2022-12-19T05:26:30.624Z,79.8
2022-12-19T05:27:33.765Z,79.7
2022-12-19T05:28:37.383Z,79.7
2022-12-19T05:29:41.569Z,79.8
2022-12-19T05:30:53.659Z,79.8
2022-12-19T05:31:59.517Z,80
2022-12-19T05:33:02.889Z,79.8
2022-12-19T05:34:06.336Z,79.6
2022-12-19T05:35:09.802Z,79.7
2022-12-19T05:36:13.433Z,79.5
2022-12-19T05:37:17.211Z,79.5
2022-12-19T05:38:19.944Z,79.4
2022-12-19T05:39:23.242Z,79.4
2022-12-19T05:40:25.991Z,79.5
2022-12-19T05:41:29.338Z,79.4
2022-12-19T05:42:32.689Z,79.4
2022-12-19T05:43:35.393Z,79.4
2022-12-19T05:44:38.780Z,79.6
2022-12-19T05:45:42.680Z,79.4
2022-12-19T05:46:46.658Z,79.3
2022-12-19T05:47:50.782Z,79.5
2022-12-19T05:48:55.430Z,79.4
2022-12-19T05:49:59.310Z,79.3
2022-12-19T05:51:02.481Z,79.7
2022-12-19T05:52:05.348Z,79.6
2022-12-19T05:53:08.721Z,79.7
2022-12-19T05:54:11.696Z,79.5
2022-12-19T05:55:14.788Z,79.7
2022-12-19T05:56:17.531Z,79.6
2022-12-19T05:57:20.325Z,79.6
2022-12-19T05:58:23.396Z,79.7
2022-12-19T05:59:27.413Z,79.2
2022-12-19T06:00:31.270Z,79.3
2022-12-19T06:01:36.029Z,79.4
2022-12-19T06:02:40.128Z,79.3
2022-12-19T06:03:45.008Z,79.4
2022-12-19T06:04:47.772Z,79.3
2022-12-19T06:05:50.589Z,79.2
2022-12-19T06:06:54.046Z,79.4
2022-12-19T06:07:57.469Z,79.2
2022-12-19T06:09:00.480Z,79.5
2022-12-19T06:10:03.598Z,79.5
2022-12-19T06:11:06.584Z,79.4
2022-12-19T06:12:09.865Z,79.3
2022-12-19T06:13:12.646Z,79.4
2022-12-19T06:14:15.353Z,79.3
2022-12-19T06:15:18.472Z,79.5
2022-12-19T06:16:22.411Z,79.4
2022-12-19T06:17:26.718Z,79.3
2022-12-19T06:18:30.092Z,79.2
2022-12-19T06:19:33.949Z,79.1
2022-12-19T06:20:37.151Z,79.1
2022-12-19T06:21:49.392Z,79.2
2022-12-19T06:22:51.825Z,79.3
2022-12-19T06:23:55.105Z,79.3
2022-12-19T06:24:58.534Z,79.3
2022-12-19T06:26:01.820Z,79.3
2022-12-19T06:27:04.244Z,79.1
2022-12-19T06:28:06.839Z,79.1
2022-12-19T06:29:11.594Z,79.3
2022-12-19T06:30:14.486Z,79.1
2022-12-19T06:31:18.300Z,79.2
2022-12-19T06:32:21.460Z,79
2022-12-19T06:33:25.520Z,79
2022-12-19T06:35:05.874Z,79
2022-12-19T06:36:09.796Z,78.7
2022-12-19T06:37:12.536Z,78.8
2022-12-19T06:38:15.697Z,78.8
2022-12-19T06:39:18.687Z,78.9
2022-12-19T06:40:21.751Z,78.8
2022-12-19T06:41:24.823Z,79
2022-12-19T06:42:28.544Z,78.8
2022-12-19T06:43:30.709Z,78.6
2022-12-19T06:44:34.026Z,78.8
2022-12-19T06:45:37.684Z,78.8
2022-12-19T06:46:43.240Z,78.6
2022-12-19T06:47:46.978Z,78.4
2022-12-19T06:48:51.052Z,78.3
2022-12-19T06:49:54.141Z,78.3
2022-12-19T06:50:56.608Z,78.6
2022-12-19T06:52:06.354Z,78.5
2022-12-19T06:53:12.532Z,78.4
2022-12-19T06:54:16.864Z,78.4
2022-12-19T06:55:19.355Z,78.4
2022-12-19T06:56:22.575Z,78.6
2022-12-19T06:57:26.173Z,78.7
2022-12-19T06:58:29.963Z,78.6
2022-12-19T06:59:32.403Z,78.7
2022-12-19T07:00:35.991Z,78.8
2022-12-19T07:01:40.774Z,78.8
2022-12-19T07:02:45.140Z,78.5
2022-12-19T07:03:47.812Z,78.5
2022-12-19T07:04:51.911Z,78.3
2022-12-19T07:05:55.145Z,78.4
2022-12-19T07:06:58.625Z,78.1
2022-12-19T07:08:02.402Z,78.1
2022-12-19T07:09:05.742Z,78.1
2022-12-19T07:10:09.748Z,78
2022-12-19T07:11:12.834Z,78.1
2022-12-19T07:12:16.526Z,78.1
2022-12-19T07:13:19.686Z,78
2022-12-19T07:14:22.766Z,78.2
2022-12-19T07:15:26.818Z,78.2
2022-12-19T07:16:29.833Z,78
2022-12-19T07:17:32.439Z,77.9
2022-12-19T07:18:35.611Z,77.9
2022-12-19T07:19:38.708Z,78.2
2022-12-19T07:20:46.862Z,78.1
2022-12-19T07:21:49.580Z,78.2
2022-12-19T07:22:53.556Z,78.1
2022-12-19T07:23:56.718Z,78.3
2022-12-19T07:25:00.120Z,78.1
2022-12-19T07:26:02.910Z,78.1
2022-12-19T07:27:06.306Z,78.1
2022-12-19T07:28:08.853Z,77.9
2022-12-19T07:29:13.276Z,77.9
2022-12-19T07:30:16.272Z,77.9
2022-12-19T07:31:19.225Z,77.9
2022-12-19T07:32:22.667Z,78.2
2022-12-19T07:33:25.742Z,78.3
2022-12-19T07:34:28.531Z,78.1
2022-12-19T07:35:32.566Z,78.2
2022-12-19T07:36:36.665Z,78.2
2022-12-19T07:37:40.018Z,78.2
2022-12-19T07:38:43.099Z,78.2
2022-12-19T07:39:47.447Z,78
2022-12-19T07:40:50.182Z,78.1
2022-12-19T07:41:53.261Z,78.1
2022-12-19T07:42:56.046Z,78.5
2022-12-19T07:43:59.137Z,78.6
2022-12-19T07:45:02.659Z,78.3
2022-12-19T07:46:06.312Z,78.3
2022-12-19T07:47:09.499Z,78.1
2022-12-19T07:48:12.017Z,78.1
2022-12-19T07:49:23.824Z,78
2022-12-19T07:50:27.464Z,78.1
2022-12-19T07:51:31.946Z,78.2
2022-12-19T07:52:36.132Z,77.8
2022-12-19T07:53:39.221Z,77.8
2022-12-19T07:54:41.931Z,77.9
2022-12-19T07:55:45.644Z,77.9
2022-12-19T07:56:50.086Z,77.9
2022-12-19T07:57:53.181Z,77.8
2022-12-19T07:58:55.928Z,77.9
2022-12-19T07:59:59.305Z,77.8
2022-12-19T08:01:02.430Z,77.8
2022-12-19T08:02:07.295Z,77.7
2022-12-19T08:03:12.670Z,77.7
2022-12-19T08:04:16.183Z,77.6
2022-12-19T08:05:20.209Z,78
2022-12-19T08:06:23.259Z,78
2022-12-19T08:07:26.573Z,77.9
2022-12-19T08:08:30.382Z,77.8
2022-12-19T08:09:33.779Z,77.7
2022-12-19T08:10:37.505Z,77.7
2022-12-19T08:11:41.123Z,77.7
2022-12-19T08:12:43.945Z,77.9
2022-12-19T08:13:48.481Z,77.8
2022-12-19T08:14:58.257Z,77.8
2022-12-19T08:16:01.239Z,77.8
2022-12-19T08:17:22.784Z,77.7
2022-12-19T08:18:26.361Z,77.7
2022-12-19T08:19:29.639Z,77.9
2022-12-19T08:20:33.076Z,77.6
2022-12-19T08:21:36.450Z,77.6
2022-12-19T08:22:41.143Z,77.9
2022-12-19T08:23:44.985Z,77.9
2022-12-19T08:24:47.726Z,77.7
2022-12-19T08:25:50.777Z,77.4
2022-12-19T08:26:54.745Z,77.5
2022-12-19T08:27:57.747Z,77.8
2022-12-19T08:29:01.762Z,77.6
2022-12-19T08:30:05.565Z,77.7
2022-12-19T08:31:11.774Z,77.6
2022-12-19T08:32:22.608Z,77.6
2022-12-19T08:33:25.392Z,77.4
2022-12-19T08:34:29.195Z,77.5
2022-12-19T08:35:32.723Z,77.3
2022-12-19T08:36:36.430Z,77.4
2022-12-19T08:37:39.196Z,77.4
2022-12-19T08:38:42.162Z,77.2
2022-12-19T08:39:46.218Z,77.5
2022-12-19T08:40:49.663Z,77.8
2022-12-19T08:41:53.154Z,77.6
2022-12-19T08:42:56.943Z,77.6
2022-12-19T08:44:01.567Z,77.7
2022-12-19T08:45:06.048Z,77.4
2022-12-19T08:46:08.804Z,77.6
2022-12-19T08:47:12.203Z,77.5
2022-12-19T08:48:15.087Z,77.4
2022-12-19T08:49:18.757Z,77.6
2022-12-19T08:50:22.513Z,77.6
2022-12-19T08:51:25.511Z,78.1
2022-12-19T08:52:28.334Z,77.7
2022-12-19T08:53:32.191Z,77.7
2022-12-19T08:54:35.531Z,77.8
2022-12-19T08:55:39.824Z,78.1
2022-12-19T08:56:48.358Z,78.1
2022-12-19T08:57:52.080Z,78.2
2022-12-19T08:58:56.000Z,78.4
2022-12-19T09:00:01.334Z,78.6
2022-12-19T09:01:07.712Z,78.8
2022-12-19T09:02:12.501Z,79.1
2022-12-19T09:03:25.948Z,79.2
2022-12-19T09:07:20.672Z,79.3
2022-12-19T09:08:23.753Z,79.5
2022-12-19T09:09:27.124Z,79.5
2022-12-19T09:10:30.370Z,79.5
2022-12-19T09:11:49.042Z,79.6
2022-12-19T09:12:59.177Z,79.6
2022-12-19T09:14:02.707Z,79.8
2022-12-19T09:15:05.784Z,79.7
2022-12-19T09:16:08.995Z,79.7
2022-12-19T09:17:11.693Z,79.7
2022-12-19T09:18:15.281Z,79.8
2022-12-19T09:19:17.873Z,79.8
2022-12-19T09:20:25.155Z,79.8
2022-12-19T09:21:28.660Z,79.9
2022-12-19T09:22:32.851Z,80.1
2022-12-19T09:23:35.427Z,80
2022-12-19T09:24:38.250Z,80
2022-12-19T09:25:41.697Z,79.9
2022-12-19T09:26:45.366Z,80.1
2022-12-19T09:28:29.324Z,80.3
2022-12-19T09:29:36.792Z,80.7
2022-12-19T09:30:40.103Z,80.7
2022-12-19T09:31:43.948Z,80.6
2022-12-19T09:32:47.967Z,80.8
2022-12-19T09:33:51.325Z,80.8
2022-12-19T09:34:55.005Z,81.1
2022-12-19T09:35:57.980Z,81.2
2022-12-19T09:37:01.975Z,81.7
2022-12-19T09:38:05.437Z,81.7
2022-12-19T09:39:08.814Z,82.1
2022-12-19T09:40:12.177Z,82.3
2022-12-19T09:41:20.196Z,82.6
2022-12-19T09:42:24.200Z,82.9
2022-12-19T09:43:27.562Z,83.1
2022-12-19T09:44:31.496Z,83.3
2022-12-19T09:45:35.184Z,83.4
2022-12-19T09:46:42.785Z,83.5
2022-12-19T09:47:52.962Z,83.7
2022-12-19T09:48:57.000Z,83.8
2022-12-19T09:50:00.707Z,83.9
2022-12-19T09:51:12.340Z,84
2022-12-19T09:52:16.027Z,84.1
2022-12-19T09:53:19.395Z,84.4
2022-12-19T09:54:22.475Z,84.6
2022-12-19T09:55:26.124Z,84.6
2022-12-19T09:56:47.246Z,84.7
2022-12-19T09:57:51.518Z,85
2022-12-19T09:58:54.867Z,85.2
2022-12-19T09:59:58.359Z,85.4
2022-12-19T10:01:02.640Z,85.5
2022-12-19T10:02:11.667Z,85.7
2022-12-19T10:03:19.348Z,85.8
2022-12-19T10:04:24.135Z,86.1
2022-12-19T10:08:10.304Z,86.3
2022-12-19T10:12:54.810Z,86.9
2022-12-19T10:14:18.673Z,87.9
2022-12-19T10:15:22.564Z,88.1
2022-12-19T10:16:26.397Z,88.4
2022-12-19T10:17:29.944Z,88.5
2022-12-19T10:18:32.804Z,88.8
2022-12-19T10:19:35.946Z,88.8
2022-12-19T10:20:39.094Z,88.9
2022-12-19T10:22:20.276Z,89
2022-12-19T10:23:23.665Z,89.1
2022-12-19T10:24:36.527Z,89.2
2022-12-19T10:25:40.203Z,89.3
2022-12-19T10:26:43.260Z,89.3
2022-12-19T10:28:01.617Z,89.2
2022-12-19T10:29:06.775Z,89.4
2022-12-19T10:30:10.682Z,89.5
2022-12-19T10:31:24.083Z,89.5
2022-12-19T10:32:28.021Z,89.6
2022-12-19T10:33:31.778Z,89.8
2022-12-19T10:34:42.578Z,89.8
2022-12-19T10:35:47.597Z,89.8
2022-12-19T10:37:47.398Z,89.8
2022-12-19T10:38:53.712Z,90.1
2022-12-19T10:39:56.481Z,90.1
2022-12-19T10:40:58.995Z,90.1
2022-12-19T10:42:02.458Z,90.1
2022-12-19T10:43:33.885Z,90.2
2022-12-19T10:44:47.817Z,90.3
2022-12-19T10:45:51.843Z,90.4
2022-12-19T10:46:55.768Z,90.5
2022-12-19T10:47:59.160Z,90.5
2022-12-19T10:49:02.362Z,90.5
2022-12-19T10:50:11.212Z,90.6
2022-12-19T10:51:14.570Z,90.7
2022-12-19T10:52:18.018Z,90.7
2022-12-19T10:53:22.360Z,90.8
2022-12-19T10:54:34.836Z,90.8
2022-12-19T10:55:38.977Z,90.9
2022-12-19T10:56:42.101Z,90.9
2022-12-19T10:57:46.956Z,91
2022-12-19T10:58:50.777Z,91.1
2022-12-19T10:59:54.722Z,91.1
2022-12-19T11:00:58.863Z,91.2
2022-12-19T11:02:12.343Z,91.2
2022-12-19T11:03:21.203Z,91.3
2022-12-19T11:04:26.442Z,91.3
2022-12-19T11:05:30.152Z,91.4
2022-12-19T11:06:35.330Z,91.5
2022-12-19T11:07:38.684Z,91.5
2022-12-19T11:08:41.789Z,91.6
2022-12-19T11:26:20.435Z,91.7
2022-12-19T11:33:34.821Z,92.6
2022-12-19T11:34:38.728Z,92.6
2022-12-19T11:35:42.904Z,92.6
2022-12-19T11:36:46.735Z,92.7
2022-12-19T11:37:56.478Z,92.7
2022-12-19T11:38:59.693Z,92.7
2022-12-19T11:40:03.446Z,92.8
2022-12-19T11:41:06.447Z,92.8
2022-12-19T11:42:09.548Z,93
2022-12-19T11:43:47.671Z,93
2022-12-19T11:44:51.622Z,93
2022-12-19T11:45:55.320Z,93
2022-12-19T11:47:00.934Z,93
2022-12-19T11:48:04.115Z,92.9
2022-12-19T11:49:07.814Z,92.9
2022-12-19T11:50:11.487Z,93
2022-12-19T11:51:15.229Z,93.1
2022-12-19T11:53:18.756Z,93.1
2022-12-19T11:54:22.715Z,93.1
2022-12-19T11:55:26.467Z,93.3
2022-12-19T11:56:29.163Z,93.3
2022-12-19T11:57:32.772Z,93.3
2022-12-19T11:58:39.632Z,93.2
2022-12-19T11:59:45.186Z,93.2
2022-12-19T12:00:48.689Z,93.2
2022-12-19T12:01:52.803Z,93.2
2022-12-19T12:02:56.763Z,93.2
2022-12-19T12:04:04.700Z,93.2
2022-12-19T12:05:08.918Z,93.2
2022-12-19T12:06:12.664Z,93.3
2022-12-19T12:31:35.528Z,93.4
2022-12-19T12:39:02.716Z,94.1
2022-12-19T12:40:06.493Z,94.2
2022-12-19T12:41:09.628Z,94.2
2022-12-19T12:42:13.668Z,94.4
2022-12-19T12:43:17.072Z,94.4
2022-12-19T12:44:38.551Z,94.4
2022-12-19T12:45:50.080Z,94.4
2022-12-19T12:46:53.615Z,94.4
2022-12-19T12:47:57.641Z,94.3
2022-12-19T12:49:00.775Z,94.3
2022-12-19T12:50:04.911Z,94.3
2022-12-19T12:51:08.023Z,94.4
2022-12-19T12:52:10.745Z,94.5
2022-12-19T12:53:15.954Z,94.5
2022-12-19T12:54:19.817Z,94.6
2022-12-19T12:55:23.488Z,94.7
2022-12-19T12:56:27.248Z,94.7
2022-12-19T12:57:36.725Z,94.6
2022-12-19T12:58:40.810Z,94.5
2022-12-19T12:59:43.519Z,94.5
2022-12-19T13:00:47.582Z,94.6
2022-12-19T13:01:51.538Z,94.6
2022-12-19T13:02:55.809Z,94.6
2022-12-19T13:03:59.873Z,94.6
2022-12-19T13:05:02.611Z,94.6
2022-12-19T13:06:05.121Z,94.6
2022-12-19T13:07:08.584Z,94.8
2022-12-19T13:08:12.037Z,94.8
2022-12-19T13:09:15.445Z,94.7
2022-12-19T13:10:19.280Z,94.7
2022-12-19T13:11:22.723Z,94.8
2022-12-19T13:12:31.611Z,94.8
2022-12-19T13:13:34.905Z,94.8
2022-12-19T13:14:38.030Z,94.8
2022-12-19T13:15:41.372Z,94.7
2022-12-19T13:16:45.147Z,94.9
2022-12-19T13:17:50.725Z,95
2022-12-19T13:18:53.875Z,95.1
2022-12-19T13:19:57.723Z,95.1
2022-12-19T13:21:01.369Z,95.2
2022-12-19T13:22:04.320Z,95.1
2022-12-19T13:23:07.523Z,95.1
2022-12-19T13:24:17.591Z,95.2
2022-12-19T13:25:26.029Z,95.3
2022-12-19T13:26:29.464Z,95.3
2022-12-19T13:27:33.274Z,95.2
2022-12-19T13:28:37.338Z,95.8
2022-12-19T13:29:40.539Z,95.9
2022-12-19T13:31:24.436Z,95.2
2022-12-19T13:32:28.618Z,94.7
2022-12-19T13:33:31.040Z,94.7
2022-12-19T13:34:34.389Z,94.8
2022-12-19T13:40:16.125Z,94.9
2022-12-19T13:41:39.223Z,95.2
2022-12-19T13:42:43.454Z,95.1
2022-12-19T13:43:46.240Z,95.2
2022-12-19T13:44:49.446Z,95.2
2022-12-19T13:45:52.619Z,95.2
2022-12-19T13:46:55.323Z,95.2
2022-12-19T13:47:58.388Z,95.2
2022-12-19T13:49:01.857Z,95.2
2022-12-19T13:50:04.704Z,95.3
2022-12-19T13:51:08.775Z,95.3
2022-12-19T13:52:11.905Z,95.2
2022-12-19T13:53:16.942Z,95.1
2022-12-19T13:54:19.693Z,95.2
2022-12-19T13:55:22.976Z,95.2
2022-12-19T13:56:26.645Z,95.2
2022-12-19T13:57:30.798Z,95.2
2022-12-19T13:58:34.445Z,95.1
2022-12-19T13:59:38.577Z,95.1
2022-12-19T14:00:41.412Z,95.2
2022-12-19T14:01:45.342Z,95.3
2022-12-19T14:02:49.918Z,95.2
2022-12-19T14:03:54.101Z,95.2
2022-12-19T14:04:57.494Z,95.2
2022-12-19T14:06:21.175Z,95.2
2022-12-19T14:07:37.710Z,95.2
2022-12-19T14:08:41.553Z,95.1
2022-12-19T14:14:06.697Z,95.1
2022-12-19T14:15:31.705Z,95.5
2022-12-19T14:16:46.720Z,95.4
2022-12-19T14:17:50.006Z,95.4
2022-12-19T14:18:53.699Z,95.5
2022-12-19T14:22:25.060Z,95.5
2022-12-19T14:23:45.742Z,95.3
2022-12-19T14:24:49.035Z,95.3
2022-12-19T14:28:31.155Z,95.3
2022-12-19T14:30:33.795Z,95.3
2022-12-19T14:31:39.142Z,95.3
2022-12-19T14:37:09.459Z,95.7
2022-12-19T14:39:30.600Z,95.6
2022-12-19T14:41:10.849Z,95.7
2022-12-19T14:42:14.407Z,95.6
2022-12-19T14:58:58.826Z,95.4
2022-12-19T15:00:03.212Z,95.5
2022-12-19T15:02:35.380Z,95.5
2022-12-19T15:03:41.921Z,95.5
2022-12-19T15:05:57.279Z,95.6
2022-12-19T15:07:13.574Z,95.8
2022-12-19T15:11:35.735Z,95.8
2022-12-19T15:16:03.270Z,95.7
2022-12-19T15:17:07.156Z,95.7
2022-12-19T15:18:10.581Z,95.8
2022-12-19T15:19:13.439Z,95.8
2022-12-19T15:20:16.805Z,95.7
2022-12-19T15:21:20.485Z,95.7
2022-12-19T15:22:23.574Z,95.7
2022-12-19T15:23:27.930Z,95.8
2022-12-19T15:24:31.029Z,95.6
2022-12-19T15:26:08.638Z,95.7
2022-12-19T15:27:12.158Z,95.6
2022-12-19T15:28:15.577Z,95.6
2022-12-19T15:29:23.233Z,95.7
2022-12-19T15:30:25.957Z,95.6
2022-12-19T15:31:30.215Z,95.7
2022-12-19T15:32:34.041Z,96
2022-12-19T15:34:38.315Z,96.1
2022-12-19T15:35:54.877Z,95.9
2022-12-19T15:36:58.601Z,95.8
2022-12-19T15:38:02.342Z,95.8
2022-12-19T15:39:06.102Z,95.9
2022-12-19T15:40:09.413Z,95.8
2022-12-19T15:41:16.068Z,95.7
2022-12-19T15:42:19.409Z,95.8
2022-12-19T15:44:06.591Z,95.9
2022-12-19T15:45:10.658Z,95.8
2022-12-19T15:46:13.893Z,95.6
2022-12-19T15:47:18.155Z,95.6
2022-12-19T15:48:21.797Z,95.7
2022-12-19T15:49:24.261Z,95.7
2022-12-19T15:50:27.690Z,95.7
2022-12-19T15:51:31.164Z,95.8
2022-12-19T15:52:34.921Z,95.7
2022-12-19T15:53:43.010Z,95.8
2022-12-19T15:54:52.223Z,95.8
2022-12-19T15:55:54.982Z,95.8
2022-12-19T15:56:58.116Z,95.9
2022-12-19T15:58:01.306Z,96
2022-12-19T15:59:04.547Z,96
2022-12-19T16:00:07.982Z,96
2022-12-19T16:01:11.745Z,96
2022-12-19T16:02:15.380Z,96
2022-12-19T16:03:27.856Z,96.1
2022-12-19T16:04:33.228Z,96
2022-12-19T16:05:39.259Z,96
2022-12-19T16:06:42.855Z,95.9
2022-12-19T16:07:46.357Z,96
2022-12-19T16:08:49.182Z,96
2022-12-19T16:09:53.001Z,96
2022-12-19T16:11:03.489Z,95.9
2022-12-19T16:12:07.252Z,96.1
2022-12-19T16:13:10.353Z,96.1
2022-12-19T16:14:14.107Z,96.1
2022-12-19T16:15:17.565Z,96
2022-12-19T16:16:21.727Z,96